Time;durP1;ratioP1;P1;durP2;ratioP2;P2;SDS_P1;SDS_P2;PMS_P1;PMS_P2;Temp;Humidity;BMP_temperature;BMP_pressure;BME280_temperature;BME280_humidity;BME280_pressure;Samples;Min_cycle;Max_cycle;Signal;HPM_P1;HPM_P2
2022/06/17 07:59:11;;;;;;;5.97;5.20;;;;;;;21.13;52.34;102170.81;5322330;27;20347;-72
2022/06/17 08:01:42;;;;;;;8.75;4.30;;;;;;;21.19;51.95;102170.31;5321565;28;20051;-71
2022/06/17 08:04:14;;;;;;;4.45;4.05;;;;;;;21.28;51.74;102170.31;5317043;28;20034;-73
2022/06/17 08:06:49;;;;;;;7.70;4.90;;;;;;;21.31;51.52;102172.47;5280325;28;20464;-74
2022/06/17 08:09:21;;;;;;;5.93;4.07;;;;;;;21.42;52.24;102171.03;5284828;28;20103;-72
2022/06/17 08:11:52;;;;;;;5.70;4.07;;;;;;;21.55;52.56;102174.00;5282589;28;20113;-72
2022/06/17 08:14:24;;;;;;;7.25;4.45;;;;;;;21.61;51.55;102183.97;5300207;28;20492;-71
2022/06/17 08:16:55;;;;;;;7.57;5.25;;;;;;;21.70;50.96;102185.63;5300818;28;20479;-70
2022/06/17 08:19:27;;;;;;;7.15;3.85;;;;;;;21.76;49.35;102188.28;5300915;28;20023;-70
2022/06/17 08:21:58;;;;;;;5.35;3.60;;;;;;;21.91;48.24;102190.59;5300357;28;20033;-70
2022/06/17 08:24:29;;;;;;;8.40;3.95;;;;;;;22.01;47.85;102195.03;5300826;28;20016;-72
2022/06/17 08:27:02;;;;;;;5.70;4.18;;;;;;;22.11;47.75;102192.72;5294970;28;20031;-70
2022/06/17 08:29:33;;;;;;;6.95;3.72;;;;;;;22.16;47.80;102180.38;5278748;28;20491;-69
2022/06/17 08:34:58;;;;;;;6.15;3.90;;;;;;;22.42;48.19;102165.34;5279615;28;20021;-70
2022/06/17 08:37:31;;;;;;;4.35;3.30;;;;;;;22.57;47.31;102167.63;5279015;28;20025;-70
2022/06/17 08:40:14;;;;;;;6.63;3.47;;;;;;;22.58;46.34;102158.81;5287162;28;20126;-72
2022/06/17 08:43:15;;;;;;;6.50;4.18;;;;;;;22.69;45.99;102152.78;5287227;28;20467;-71
2022/06/17 08:45:58;;;;;;;4.53;3.83;;;;;;;22.66;45.13;102142.16;5277886;28;20032;-70
2022/06/17 08:48:39;;;;;;;5.05;3.58;;;;;;;22.64;44.89;102150.13;5279384;28;20032;-70
2022/06/17 08:51:25;;;;;;;6.50;3.72;;;;;;;22.68;45.18;102159.59;5278737;28;20083;-71
2022/06/17 08:54:23;;;;;;;4.63;3.63;;;;;;;22.78;45.26;102167.69;5279282;28;20029;-71
2022/06/17 08:57:04;;;;;;;5.57;3.78;;;;;;;22.85;44.74;102172.81;5297005;28;20051;-73
2022/06/17 08:59:57;;;;;;;5.13;3.38;;;;;;;22.91;45.24;102160.97;5321136;28;20028;-71
2022/06/17 09:02:47;;;;;;;5.93;4.05;;;;;;;23.09;44.11;102160.88;5300326;28;20396;-72
2022/06/17 09:05:27;;;;;;;6.13;4.22;;;;;;;23.21;44.33;102175.09;5299329;28;20024;-72
2022/06/17 09:08:35;;;;;;;6.63;4.05;;;;;;;23.26;44.41;102166.38;5303774;28;20062;-72
2022/06/17 09:11:21;;;;;;;7.65;3.83;;;;;;;23.39;44.15;102165.31;5301487;28;20043;-72
2022/06/17 09:13:58;;;;;;;;;;;;;;;23.49;43.77;102169.69;5306936;28;20042;-72
2022/06/17 09:16:42;;;;;;;6.28;4.25;;;;;;;23.49;43.86;102160.38;5299998;28;19916;-72
2022/06/17 09:19:18;;;;;;;6.85;3.85;;;;;;;23.54;43.69;102146.00;5289484;28;20041;-71
2022/06/17 09:21:53;;;;;;;12.30;6.32;;;;;;;23.69;42.99;102145.38;5290003;28;20095;-72
2022/06/17 09:24:36;;;;;;;8.80;4.68;;;;;;;23.69;42.40;102151.03;5305791;28;20118;-69
2022/06/17 09:27:15;;;;;;;6.93;3.80;;;;;;;23.84;42.58;102164.56;5301509;28;20021;-71
2022/06/17 09:29:47;;;;;;;7.68;3.95;;;;;;;23.79;42.60;102166.81;5285297;28;20017;-71
2022/06/17 09:32:38;;;;;;;11.18;10.13;;;;;;;23.82;42.33;102169.75;5288467;28;20032;-73
2022/06/17 09:35:21;;;;;;;6.55;4.25;;;;;;;23.86;41.36;102162.22;5289084;28;20040;-72
2022/06/17 09:38:11;;;;;;;8.23;3.85;;;;;;;23.92;41.52;102159.16;5299713;28;20122;-72
2022/06/17 09:40:45;;;;;;;7.35;4.22;;;;;;;24.19;41.00;102158.53;5292689;28;20028;-72
2022/06/17 09:43:28;;;;;;;7.28;4.20;;;;;;;24.17;40.75;102154.41;5290162;28;20029;-72
2022/06/17 09:46:13;;;;;;;4.47;2.90;;;;;;;24.19;40.08;102158.53;5299731;28;20039;-72
2022/06/17 09:49:10;;;;;;;6.03;3.85;;;;;;;24.14;40.82;102160.78;5285478;28;20036;-71
2022/06/17 09:51:50;;;;;;;6.03;3.42;;;;;;;24.17;40.70;102157.22;5285715;28;20031;-72
2022/06/17 09:54:31;;;;;;;5.07;3.55;;;;;;;24.24;40.84;102155.47;5284230;28;20070;-70
2022/06/17 09:57:24;;;;;;;5.57;3.40;;;;;;;24.26;40.96;102158.78;5286805;28;20111;-71
2022/06/17 10:00:07;;;;;;;4.75;2.88;;;;;;;24.20;40.46;102157.34;5287584;28;20025;-71
2022/06/17 10:02:50;;;;;;;6.45;2.90;;;;;;;24.38;40.77;102154.31;5302663;28;20023;-73
2022/06/17 10:05:53;;;;;;;7.75;3.10;;;;;;;24.50;39.99;102145.84;5305387;28;20024;-74
2022/06/17 10:08:46;;;;;;;6.70;2.65;;;;;;;24.70;38.53;102142.06;5284265;28;20029;-71
2022/06/17 10:11:29;;;;;;;6.15;2.35;;;;;;;24.82;38.19;102134.69;5285768;28;20382;-72
2022/06/17 10:14:44;;;;;;;5.18;2.35;;;;;;;25.02;38.32;102138.59;5283903;28;20029;-72
2022/06/17 10:20:32;;;;;;;4.45;2.50;;;;;;;24.80;37.79;102132.25;5308226;28;20032;-73
2022/06/17 10:23:28;;;;;;;3.58;2.40;;;;;;;24.85;36.90;102134.00;5324501;28;20110;-71
2022/06/17 10:26:25;;;;;;;4.15;2.30;;;;;;;24.95;37.15;102130.66;5294171;28;20103;-73
2022/06/17 10:29:11;;;;;;;3.17;2.40;;;;;;;24.97;36.35;102114.09;5283734;28;20502;-72
2022/06/17 10:31:44;;;;;;;;;;;;;;;25.08;37.90;102118.13;5284445;28;20028;-74
2022/06/17 10:34:22;;;;;;;4.20;2.20;;;;;;;25.05;36.56;102120.84;5283954;28;19966;-74
2022/06/17 10:36:59;;;;;;;3.85;2.42;;;;;;;25.09;36.77;102128.28;5301944;28;20482;-73
2022/06/17 10:39:33;;;;;;;4.03;2.33;;;;;;;25.07;36.46;102126.97;5304227;28;20069;-74
2022/06/17 10:42:09;;;;;;;3.78;2.20;;;;;;;25.22;36.11;102125.44;5301165;28;20025;-75
2022/06/17 10:44:44;;;;;;;4.97;2.40;;;;;;;25.48;36.54;102120.13;5284737;28;20032;-74
2022/06/17 10:47:34;;;;;;;5.88;4.43;;;;;;;25.43;37.09;102111.88;5284270;28;20387;-74
2022/06/17 10:50:21;;;;;;;3.72;2.33;;;;;;;25.48;37.21;102117.28;5291804;28;20115;-73
2022/06/17 10:53:02;;;;;;;3.67;2.25;;;;;;;25.76;36.55;102110.75;5290762;28;20476;-74
2022/06/17 10:55:38;;;;;;;3.85;2.17;;;;;;;25.65;36.41;102107.63;5283535;28;20024;-74
2022/06/17 10:58:29;;;;;;;3.45;2.03;;;;;;;25.73;36.27;102108.66;5288837;28;20506;-74
2022/06/17 11:01:11;;;;;;;2.42;2.20;;;;;;;25.66;35.40;102112.13;5321348;28;20016;-74
2022/06/17 11:03:48;;;;;;;3.65;1.83;;;;;;;25.58;35.94;102113.94;5317758;28;20020;-73
2022/06/17 11:06:23;;;;;;;5.43;4.35;;;;;;;25.81;36.05;102102.78;5303881;28;20077;-73
2022/06/17 11:08:59;;;;;;;4.00;2.47;;;;;;;25.79;36.47;102098.66;5304680;28;20059;-75
2022/06/17 11:14:40;;;;;;;4.55;2.47;;;;;;;25.90;35.84;102081.94;5305049;28;20494;-73
2022/06/17 11:17:23;;;;;;;4.68;2.88;;;;;;;25.93;36.08;102076.34;5302527;28;20028;-70
2022/06/17 11:19:58;;;;;;;6.15;2.30;;;;;;;26.17;35.97;102085.91;5300217;28;20114;-70
2022/06/17 11:22:34;;;;;;;4.22;2.65;;;;;;;26.28;35.24;102069.09;5283333;28;20575;-70
2022/06/17 11:25:20;;;;;;;3.28;2.17;;;;;;;26.29;35.49;102071.59;5282463;28;20021;-69
2022/06/17 11:27:58;;;;;;;6.63;5.97;;;;;;;26.29;35.23;102077.28;5293130;28;20035;-69
2022/06/17 11:30:31;;;;;;;2.75;2.30;;;;;;;26.41;35.01;102064.97;5298285;28;20020;-69
2022/06/17 11:33:19;;;;;;;5.70;2.25;;;;;;;26.35;35.02;102055.88;5318220;28;20414;-69
2022/06/17 11:36:01;;;;;;;5.32;2.00;;;;;;;26.29;34.80;102048.84;5315833;28;20027;-69
2022/06/17 11:38:34;;;;;;;3.80;2.72;;;;;;;26.40;34.63;102061.28;5324292;28;20042;-70
2022/06/17 11:41:06;;;;;;;3.92;2.00;;;;;;;26.38;33.31;102055.16;5325440;28;20046;-70
2022/06/17 11:43:42;;;;;;;2.55;1.95;;;;;;;26.74;32.97;102050.34;5311478;28;20020;-69
2022/06/17 11:46:20;;;;;;;2.92;1.95;;;;;;;26.62;33.59;102061.84;5309170;28;20034;-69
2022/06/17 11:48:56;;;;;;;3.45;2.00;;;;;;;26.66;34.11;102057.91;5323201;28;20020;-69
2022/06/17 11:51:37;;;;;;;3.40;2.03;;;;;;;26.78;34.14;102053.25;5290017;28;20016;-69
2022/06/17 11:54:18;;;;;;;7.45;5.55;;;;;;;26.90;33.65;102036.06;5282280;28;20537;-68
2022/06/17 11:56:52;;;;;;;5.53;2.00;;;;;;;27.06;33.84;102035.97;5282152;28;20061;-69
2022/06/17 11:59:39;;;;;;;3.10;2.03;;;;;;;27.10;33.44;102034.03;5285406;28;20375;-69
2022/06/17 12:02:11;;;;;;;2.85;1.88;;;;;;;27.15;32.46;102036.59;5309870;28;20028;-67
2022/06/17 12:04:45;;;;;;;2.42;1.70;;;;;;;27.28;32.09;102025.88;5323616;28;20490;-68
2022/06/17 12:07:32;;;;;;;2.70;2.03;;;;;;;27.25;32.10;102021.78;5301817;28;20058;-69
2022/06/17 12:10:17;;;;;;;1.92;1.52;;;;;;;27.36;32.35;102013.44;5295012;28;20043;-69
2022/06/17 12:12:52;;;;;;;3.50;2.10;;;;;;;27.45;31.85;102025.38;5320778;28;20169;-68
2022/06/17 12:15:36;;;;;;;4.43;2.08;;;;;;;27.52;31.57;102019.00;5317479;28;20027;-69
2022/06/17 12:18:17;;;;;;;1.65;1.55;;;;;;;27.61;31.18;102022.47;5300535;28;20024;-69
2022/06/17 12:21:06;;;;;;;6.68;2.00;;;;;;;27.79;31.15;102008.53;5301846;28;20015;-69
2022/06/17 12:23:47;;;;;;;4.20;1.67;;;;;;;27.84;30.95;102005.38;5324416;28;20077;-69
2022/06/17 12:26:28;;;;;;;5.47;1.90;;;;;;;27.83;31.34;101997.22;5286552;28;20020;-68
2022/06/17 12:29:30;;;;;;;4.68;3.85;;;;;;;27.89;31.99;102004.22;5302995;28;20443;-68
2022/06/17 12:32:28;;;;;;;8.68;2.28;;;;;;;27.91;31.98;101996.13;5307407;28;20038;-69
2022/06/17 12:35:25;;;;;;;5.22;3.85;;;;;;;28.11;31.46;102006.22;5323147;28;20035;-69
2022/06/17 12:38:13;;;;;;;6.50;2.20;;;;;;;28.28;31.19;101998.34;5324649;28;20027;-68
2022/06/17 12:41:07;;;;;;;3.08;2.03;;;;;;;28.26;30.16;102001.56;5296876;28;20043;-68
2022/06/17 12:43:58;;;;;;;2.47;1.70;;;;;;;28.25;30.27;102001.94;5289780;28;20740;-69
2022/06/17 12:46:47;;;;;;;3.92;2.15;;;;;;;28.36;31.08;101986.66;5307315;28;20028;-69
2022/06/17 12:56:06;;;;;;;5.43;1.63;;;;;;;28.49;30.30;102001.53;5294576;28;20032;-69
2022/06/17 12:59:15;;;;;;;2.53;1.42;;;;;;;28.61;30.07;101992.75;5293006;28;20040;-69
2022/06/17 13:02:00;;;;;;;3.13;1.40;;;;;;;28.54;29.33;101989.78;5314164;28;20032;-69
2022/06/17 13:04:59;;;;;;;2.67;1.70;;;;;;;28.63;29.40;101980.94;5300098;28;20360;-70
2022/06/17 13:08:03;;;;;;;3.45;1.70;;;;;;;28.80;29.77;101980.34;5286031;28;20274;-70
2022/06/17 13:10:40;;;;;;;4.85;2.20;;;;;;;28.90;29.23;101967.41;5301018;28;20366;-70
2022/06/17 13:13:35;;;;;;;5.03;1.83;;;;;;;28.75;29.85;101977.03;5306676;28;20020;-69
2022/06/17 13:16:15;;;;;;;3.00;1.75;;;;;;;28.80;29.55;101968.13;5294318;28;20036;-69
2022/06/17 13:18:46;;;;;;;3.65;1.92;;;;;;;28.98;30.01;101963.44;5285213;28;20036;-69
2022/06/17 13:21:22;;;;;;;2.47;1.80;;;;;;;29.02;29.90;101972.06;5289183;28;20024;-69
2022/06/17 13:24:32;;;;;;;4.88;1.90;;;;;;;29.10;30.05;101958.72;5305951;28;20602;-68
2022/06/17 13:27:13;;;;;;;3.35;1.70;;;;;;;29.07;30.12;101960.31;5302189;28;20487;-69
2022/06/17 13:29:57;;;;;;;3.03;1.70;;;;;;;29.22;29.95;101967.84;5306259;28;20032;-69
2022/06/17 13:32:41;;;;;;;3.65;2.28;;;;;;;29.28;29.86;101964.63;5298820;28;20024;-70
2022/06/17 13:35:21;;;;;;;2.42;1.45;;;;;;;29.26;30.49;101956.44;5285150;28;20054;-70
2022/06/17 13:38:04;;;;;;;3.42;1.40;;;;;;;29.46;30.66;101954.19;5291338;28;20036;-70
2022/06/17 13:41:19;;;;;;;2.50;1.85;;;;;;;29.43;30.88;101944.38;5300516;28;20052;-69
2022/06/17 13:43:59;;;;;;;3.30;1.90;;;;;;;29.45;31.23;101941.94;5303997;28;20356;-69
2022/06/17 13:46:53;;;;;;;4.93;1.88;;;;;;;29.62;31.57;101945.34;5293479;28;20039;-70
2022/06/17 13:50:24;;;;;;;7.22;2.00;;;;;;;29.64;31.33;101931.47;5298710;28;20032;-70
2022/06/17 13:53:01;;;;;;;4.15;2.00;;;;;;;29.88;31.45;101921.47;5199538;28;20109;-71
2022/06/17 13:55:42;;;;;;;2.85;1.92;;;;;;;29.85;31.19;101928.00;5291501;28;20383;-70
2022/06/17 13:58:25;;;;;;;5.70;1.90;;;;;;;29.84;30.92;101918.59;5323901;28;20166;-69
2022/06/17 14:01:04;;;;;;;6.72;1.98;;;;;;;29.86;30.73;101918.19;5311327;28;20125;-68
2022/06/17 14:03:54;;;;;;;3.47;1.90;;;;;;;29.92;31.06;101910.09;5298437;28;20464;-70
2022/06/17 14:06:44;;;;;;;5.75;1.88;;;;;;;30.03;30.50;101910.97;5305903;28;20502;-70
2022/06/17 14:09:33;;;;;;;2.38;1.65;;;;;;;29.99;30.48;101905.25;5284481;28;20033;-69
2022/06/17 14:12:25;;;;;;;4.15;1.98;;;;;;;30.10;30.90;101896.72;5308658;28;20027;-68
2022/06/17 14:15:06;;;;;;;5.55;2.05;;;;;;;30.26;30.56;101900.09;5301750;28;20032;-69
2022/06/17 14:17:56;;;;;;;2.28;1.98;;;;;;;30.29;30.32;101925.03;5284448;28;20032;-68
2022/06/17 14:20:35;;;;;;;5.32;1.60;;;;;;;30.40;30.76;101921.41;5307726;28;20032;-70
2022/06/17 14:23:25;;;;;;;2.53;1.85;;;;;;;30.31;30.95;101919.75;5318698;28;20021;-71
2022/06/17 14:25:59;;;;;;;3.63;2.45;;;;;;;30.22;30.43;101916.41;5301168;28;20028;-70
2022/06/17 14:28:32;;;;;;;4.63;1.90;;;;;;;30.51;30.26;101908.00;5286846;28;20047;-70
2022/06/17 14:31:23;;;;;;;2.30;1.75;;;;;;;30.52;29.59;101906.75;5307236;28;20047;-70
2022/06/17 14:33:54;;;;;;;4.88;2.25;;;;;;;30.42;30.31;101904.66;5326388;28;20024;-69
2022/06/17 14:37:03;;;;;;;3.27;2.27;;;;;;;30.59;29.85;101912.53;5325582;28;20022;-70
2022/06/17 14:39:40;;;;;;;2.83;1.90;;;;;;;30.64;30.19;101906.41;5326267;28;20293;-69
2022/06/17 14:42:17;;;;;;;3.03;1.90;;;;;;;30.53;29.92;101886.34;5306322;28;20035;-69
2022/06/17 14:45:07;;;;;;;3.05;1.90;;;;;;;30.61;29.42;101892.91;5326279;28;20027;-70
2022/06/17 14:47:57;;;;;;;3.15;1.98;;;;;;;30.61;29.06;101901.50;5301156;28;20024;-70
2022/06/17 14:50:47;;;;;;;3.13;1.85;;;;;;;30.68;29.10;101898.66;5296672;28;20055;-70
2022/06/17 14:53:26;;;;;;;2.55;1.75;;;;;;;30.73;29.36;101889.69;5287992;28;20024;-70
2022/06/17 14:56:28;;;;;;;4.75;1.98;;;;;;;30.76;30.09;101877.41;5296585;28;20051;-69
2022/06/17 14:59:02;;;;;;;5.22;2.63;;;;;;;30.76;29.37;101883.16;5286497;28;20131;-70
2022/06/17 15:01:46;;;;;;;;;;;;;;;31.02;29.56;101884.06;5285345;28;20452;-71
2022/06/17 15:04:36;;;;;;;3.03;1.92;;;;;;;30.90;29.52;101870.09;5286992;28;19938;-69
2022/06/17 15:07:21;;;;;;;3.70;1.92;;;;;;;30.90;29.52;101867.25;5298490;28;20032;-70
2022/06/17 15:10:00;;;;;;;3.97;1.80;;;;;;;30.91;29.89;101866.84;5304603;28;20024;-71
2022/06/17 15:12:35;;;;;;;3.15;2.28;;;;;;;30.68;30.25;101866.31;5297072;28;20187;-69
2022/06/17 15:15:13;;;;;;;4.57;1.85;;;;;;;30.68;29.61;101872.91;5300764;28;20033;-69
2022/06/17 15:17:48;;;;;;;3.58;1.88;;;;;;;30.60;29.68;101856.09;5287183;28;20023;-72
2022/06/17 15:20:24;;;;;;;4.03;2.20;;;;;;;30.72;29.72;101853.66;5298454;28;20024;-71
2022/06/17 15:23:40;;;;;;;12.02;3.25;;;;;;;30.71;29.60;101839.78;5296853;28;20493;-69
2022/06/17 15:26:25;;;;;;;3.05;1.95;;;;;;;30.62;29.46;101840.16;5282361;28;20049;-71
2022/06/17 15:28:58;;;;;;;;;;;;;;;30.81;29.29;101835.28;5309215;28;20026;-70
2022/06/17 15:31:35;;;;;;;4.00;2.03;;;;;;;30.69;29.62;101831.59;5310458;28;19912;-69
2022/06/17 15:34:18;;;;;;;2.60;2.00;;;;;;;30.71;29.41;101829.13;5283065;28;20016;-69
2022/06/17 15:36:53;;;;;;;3.33;2.08;;;;;;;30.57;29.77;101834.00;5282845;28;20449;-68
2022/06/17 15:39:27;;;;;;;4.43;2.30;;;;;;;30.61;29.92;101824.22;5291042;28;20059;-68
2022/06/17 15:42:02;;;;;;;4.43;2.20;;;;;;;30.60;30.34;101819.69;5285286;28;20032;-69
2022/06/17 15:44:38;;;;;;;;;;;;;;;30.77;30.49;101836.09;5299346;28;20382;-69
2022/06/17 15:47:09;;;;;;;4.30;2.35;;;;;;;30.52;31.34;101826.63;5296179;28;20369;-69
2022/06/17 15:49:44;;;;;;;5.72;2.78;;;;;;;30.57;31.01;101823.38;5287416;28;20087;-68
2022/06/17 15:52:34;;;;;;;;;;;;;;;30.69;31.33;101819.31;5290544;28;20126;-69
2022/06/17 15:55:11;;;;;;;5.10;2.50;;;;;;;30.57;31.31;101811.09;5303543;28;20397;-68
2022/06/17 15:57:50;;;;;;;6.40;2.70;;;;;;;30.52;30.60;101815.19;5293232;28;20049;-68
2022/06/17 16:00:35;;;;;;;3.45;2.30;;;;;;;30.45;30.90;101820.88;5298535;28;20047;-69
2022/06/17 16:03:13;;;;;;;5.68;2.55;;;;;;;30.56;30.81;101816.03;5303247;28;20081;-70
2022/06/17 16:05:47;;;;;;;2.95;1.90;;;;;;;30.50;30.26;101820.47;5300773;28;20040;-70
2022/06/17 16:08:51;;;;;;;3.55;2.42;;;;;;;30.54;30.56;101807.00;5301520;28;20032;-71
2022/06/17 16:11:28;;;;;;;4.93;2.40;;;;;;;30.57;30.58;101806.19;5303720;28;20487;-69
2022/06/17 16:14:03;;;;;;;3.70;2.45;;;;;;;30.53;30.99;101819.69;5298101;28;20043;-70
2022/06/17 16:16:47;;;;;;;4.43;2.30;;;;;;;30.59;30.98;101818.06;5283518;28;20046;-71
2022/06/17 16:19:23;;;;;;;5.87;2.23;;;;;;;30.64;30.97;101816.84;5283395;28;20029;-69
2022/06/17 16:21:57;;;;;;;6.78;2.55;;;;;;;30.67;31.10;101825.44;5285829;28;20356;-70
2022/06/17 16:24:33;;;;;;;3.78;2.20;;;;;;;30.58;30.46;101816.44;5304135;28;20024;-70
2022/06/17 16:27:19;;;;;;;2.88;2.38;;;;;;;30.61;31.08;101814.81;5297536;28;20021;-70
2022/06/17 16:29:57;;;;;;;5.00;2.42;;;;;;;30.46;30.31;101819.66;5317060;28;20130;-70
2022/06/17 16:32:31;;;;;;;4.43;2.67;;;;;;;30.53;30.10;101816.84;5320321;28;20020;-70
2022/06/17 16:35:03;;;;;;;3.73;2.20;;;;;;;30.42;30.46;101813.09;5285629;28;20111;-71
2022/06/17 16:37:51;;;;;;;4.03;2.30;;;;;;;30.54;29.87;101807.00;5293079;28;20107;-71
2022/06/17 16:46:25;;;;;;;4.18;1.98;;;;;;;30.41;29.79;101789.41;5321736;28;20027;-71
2022/06/17 16:48:59;;;;;;;6.38;1.98;;;;;;;30.67;29.54;101788.22;5319130;28;20020;-70
2022/06/17 16:51:30;;;;;;;7.15;2.33;;;;;;;30.48;30.13;101785.75;5307491;28;20144;-70
2022/06/17 16:54:03;;;;;;;3.97;1.90;;;;;;;30.37;30.18;101782.03;5328668;28;20051;-71
2022/06/17 16:56:34;;;;;;;2.72;1.90;;;;;;;30.40;29.96;101775.47;5292572;28;20026;-71
2022/06/17 16:59:06;;;;;;;4.78;2.10;;;;;;;30.69;30.58;101765.75;5306394;28;20499;-71
2022/06/17 17:01:37;;;;;;;4.32;2.55;;;;;;;30.57;30.15;101766.13;5307140;28;20027;-72
2022/06/17 17:04:10;;;;;;;5.47;1.85;;;;;;;30.53;30.59;101771.03;5301936;28;20116;-71
2022/06/17 17:06:41;;;;;;;3.17;2.45;;;;;;;30.47;30.61;101755.47;5319242;28;20024;-71
2022/06/17 17:09:13;;;;;;;4.55;2.10;;;;;;;30.54;30.39;101769.81;5327457;28;20508;-76
2022/06/17 17:11:44;;;;;;;4.20;2.10;;;;;;;30.54;30.35;101764.09;5328219;28;20026;-73
2022/06/17 17:14:21;;;;;;;5.07;2.67;;;;;;;30.51;30.34;101764.91;5296358;28;20101;-71
2022/06/17 17:16:52;;;;;;;3.53;2.80;;;;;;;30.50;30.86;101761.22;5293408;28;20024;-70
2022/06/17 17:19:26;;;;;;;5.43;2.25;;;;;;;30.54;30.94;101752.63;5306465;28;20028;-69
2022/06/17 17:22:02;;;;;;;4.75;2.78;;;;;;;30.62;30.89;101756.31;5304032;28;20517;-71
2022/06/17 17:24:36;;;;;;;4.03;2.25;;;;;;;30.59;30.94;101752.22;5291291;28;20031;-70
2022/06/17 17:27:08;;;;;;;4.05;2.42;;;;;;;30.72;30.63;101756.34;5305970;28;20039;-69
2022/06/17 17:29:40;;;;;;;3.58;2.10;;;;;;;30.55;30.67;101752.25;5305608;28;20028;-71
